createdAt,value
2022-11-29T06:03:23.624Z,0.373
2022-11-29T06:10:23.132Z,0.747
2022-11-29T06:14:58.783Z,1.494
2022-11-29T06:17:57.395Z,2.241
2022-11-29T06:20:35.586Z,3.361
2022-11-29T06:25:26.321Z,6.349
2022-11-29T06:28:30.011Z,11.205
2022-11-29T06:34:47.728Z,25.398
2022-11-29T06:37:25.678Z,32.868
2022-11-29T06:40:44.602Z,46.687
2022-11-29T06:43:48.215Z,57.519
2022-11-29T06:47:37.820Z,69.471
2022-11-29T06:51:17.158Z,89.266
2022-11-29T06:55:01.669Z,122.508
2022-11-29T07:00:31.587Z,180.774
2022-11-29T07:06:18.458Z,240.534
2022-11-29T07:11:28.306Z,298.8
2022-11-29T07:16:28.462Z,363.042
2022-11-29T07:21:28.472Z,415.332
2022-11-29T07:26:28.605Z,531.864
2022-11-29T07:31:28.730Z,684.252
2022-11-29T07:34:01.870Z,764.928
2022-11-29T07:39:01.078Z,872.496
2022-11-29T07:44:01.198Z,962.136
2022-11-29T07:49:21.502Z,1105.56
2022-11-29T07:54:27.568Z,1320.696
2022-11-29T08:00:23.250Z,1709.136
2022-11-29T08:05:23.315Z,2043.792
2022-11-29T08:10:23.408Z,2127.456
2022-11-29T08:13:27.160Z,2223.072
2022-11-29T08:16:00.363Z,2342.592
2022-11-29T08:18:43.454Z,2366.496
2022-11-29T08:21:26.738Z,2306.736
2022-11-29T08:24:09.984Z,2270.88
2022-11-29T08:27:03.499Z,2306.736
2022-11-29T08:29:46.699Z,2497.968
2022-11-29T08:32:29.968Z,2940.192
2022-11-29T08:35:13.204Z,3394.368
2022-11-29T08:38:57.238Z,3800.736
2022-11-29T08:41:25.669Z,4015.872
2022-11-29T08:44:29.403Z,4254.912
2022-11-29T08:47:07.633Z,4517.856
2022-11-29T08:49:40.668Z,4804.704
2022-11-29T08:52:13.712Z,5211.072
2022-11-29T08:55:22.585Z,5713.056
2022-11-29T08:57:55.608Z,5999.904
2022-11-29T09:00:49.180Z,6215.04
2022-11-29T09:04:38.768Z,6310.656
2022-11-29T09:07:47.663Z,6358.464
2022-11-29T09:11:27.068Z,6358.464
2022-11-29T09:15:01.450Z,6406.272
2022-11-29T09:17:34.498Z,6501.888
2022-11-29T09:20:38.172Z,6740.928
2022-11-29T09:23:11.252Z,7027.776
2022-11-29T09:25:59.739Z,7314.624
2022-11-29T09:28:37.891Z,7553.664
2022-11-29T09:32:07.209Z,7840.512
2022-11-29T09:35:10.891Z,8079.552
2022-11-29T09:37:43.943Z,8318.592
2022-11-29T09:42:34.845Z,8701.056
2022-11-29T09:45:48.801Z,8987.904
2022-11-29T09:48:26.893Z,9035.712
2022-11-29T09:51:56.172Z,9322.56
2022-11-29T09:54:34.446Z,9226.944
2022-11-29T09:57:10.493Z,8892.288
2022-11-29T10:00:46.984Z,8653.248
2022-11-29T10:03:25.146Z,8653.248
2022-11-29T10:06:03.379Z,8653.248
2022-11-29T10:09:20.573Z,8940.096
2022-11-29T10:12:26.223Z,8701.056
2022-11-29T10:15:14.626Z,8509.824
2022-11-29T10:18:28.547Z,8222.976
2022-11-29T10:21:06.680Z,7936.128
2022-11-29T10:25:01.405Z,7840.512
2022-11-29T10:27:39.649Z,7649.28
2022-11-29T10:30:17.822Z,7171.2
2022-11-29T10:33:01.183Z,6597.504
2022-11-29T10:35:59.756Z,6693.12
2022-11-29T10:38:58.430Z,6693.12
2022-11-29T10:41:41.763Z,6597.504
2022-11-29T10:45:01.011Z,6454.08
2022-11-29T10:48:09.585Z,6454.08
2022-11-29T10:51:33.745Z,6693.12
2022-11-29T10:54:22.132Z,7027.776
2022-11-29T10:57:10.514Z,7410.24
2022-11-29T10:59:53.821Z,7792.704
2022-11-29T11:02:52.411Z,7553.664
2022-11-29T11:07:38.214Z,7362.432
2022-11-29T11:10:16.416Z,7266.816
2022-11-29T11:13:04.843Z,6932.16
2022-11-29T11:15:53.319Z,6549.696
2022-11-29T11:18:31.506Z,6215.04
2022-11-29T11:21:30.083Z,5665.248
2022-11-29T11:24:33.838Z,5282.784
2022-11-29T11:27:06.981Z,5234.976
2022-11-29T11:30:05.628Z,5306.688
2022-11-29T11:32:48.918Z,5450.112
2022-11-29T11:36:07.928Z,5474.016
2022-11-29T11:38:51.231Z,5378.4
2022-11-29T11:41:34.561Z,5211.072
2022-11-29T11:44:46.679Z,5306.688
2022-11-29T11:47:06.305Z,5474.016
2022-11-29T11:49:44.413Z,5952.096
2022-11-29T11:52:40.652Z,6310.656
2022-11-29T11:55:26.213Z,6549.696
2022-11-29T11:58:00.550Z,6740.928
2022-11-29T12:04:30.679Z,6454.08
2022-11-29T12:08:07.643Z,6215.04
2022-11-29T12:10:27.881Z,6023.808
2022-11-29T12:13:01.032Z,5689.152
2022-11-29T12:16:25.023Z,5474.016
2022-11-29T12:19:03.235Z,5282.784
2022-11-29T12:23:18.267Z,4685.184
2022-11-29T12:26:06.612Z,4278.816
2022-11-29T12:31:21.984Z,3657.312
2022-11-29T12:33:55.032Z,3394.368
2022-11-29T12:40:06.500Z,3298.752
2022-11-29T12:45:06.548Z,3059.712
2022-11-29T12:48:00.075Z,2928.24
2022-11-29T12:50:38.254Z,2820.672
2022-11-29T12:53:11.244Z,2748.96
2022-11-29T12:57:05.893Z,2713.104
2022-11-29T13:03:23.351Z,2737.008
2022-11-29T13:09:18.340Z,2378.448
2022-11-29T13:14:40.768Z,2139.408
2022-11-29T13:19:09.488Z,1984.032
2022-11-29T13:24:09.927Z,1972.08
2022-11-29T13:30:04.849Z,1900.368
2022-11-29T13:32:53.215Z,1816.704
2022-11-29T13:37:55.274Z,1697.184
2022-11-29T13:42:53.201Z,1637.424
2022-11-29T13:47:53.315Z,1422.288
2022-11-29T13:52:53.502Z,1231.056
2022-11-29T13:58:15.252Z,1171.296
2022-11-29T14:02:53.699Z,1051.776
2022-11-29T14:07:53.761Z,920.304
2022-11-29T14:12:53.877Z,842.616
2022-11-29T14:17:53.950Z,729.072
2022-11-29T14:22:54.102Z,630.468
2022-11-29T14:27:54.182Z,543.816
2022-11-29T14:32:54.318Z,454.176
2022-11-29T14:37:54.460Z,418.32
2022-11-29T14:40:47.931Z,357.066
2022-11-29T14:43:56.635Z,300.294
2022-11-29T14:47:20.717Z,262.944
2022-11-29T14:52:46.212Z,200.196
2022-11-29T14:57:46.316Z,137.448
2022-11-29T15:02:46.445Z,94.122
2022-11-29T15:06:15.720Z,72.832
2022-11-29T15:08:53.831Z,62.001
2022-11-29T15:11:57.466Z,48.181
2022-11-29T15:14:35.673Z,37.35
2022-11-29T15:17:13.976Z,28.386
2022-11-29T15:19:57.136Z,20.169
2022-11-29T15:22:35.184Z,14.566
2022-11-29T15:29:47.277Z,5.229
2022-11-29T15:34:47.566Z,2.241
2022-11-29T15:38:06.415Z,1.12
2022-11-29T15:44:34.112Z,0.373
2022-11-29T15:48:38.947Z,0
